createdAt,value
2017-09-25T00:00:46.627Z,98647.13
2017-09-25T00:03:14.965Z,98647.99
2017-09-25T00:05:43.296Z,98638.97
2017-09-25T00:08:11.652Z,98638.84
2017-09-25T00:10:40.759Z,98636.69
2017-09-25T00:13:09.861Z,98633.77
2017-09-25T00:15:38.994Z,98637.63
2017-09-25T00:18:07.335Z,98635.54
2017-09-25T00:20:36.442Z,98644.63
2017-09-25T00:23:04.818Z,98636.03
2017-09-25T00:25:33.152Z,98635.18
2017-09-25T00:28:01.492Z,98634.83
2017-09-25T00:30:29.859Z,98629.54
2017-09-25T00:32:58.961Z,98628.30
2017-09-25T00:35:27.305Z,98627.48
2017-09-25T00:37:55.672Z,98627.44
2017-09-25T00:40:24.038Z,98623.13
2017-09-25T00:42:52.362Z,98627.84
2017-09-25T00:45:22.419Z,98626.08
2017-09-25T00:47:50.747Z,98628.59
2017-09-25T00:50:19.084Z,98631.63
2017-09-25T00:53:05.387Z,98626.84
2017-09-25T00:55:51.881Z,98627.25
2017-09-25T00:58:20.263Z,98619.48
2017-09-25T01:01:06.351Z,98621.64
2017-09-25T01:03:52.415Z,98618.29
2017-09-25T01:06:30.692Z,98619.27
2017-09-25T01:08:59.056Z,98614.80
2017-09-25T01:11:27.386Z,98615.22
2017-09-25T01:13:56.513Z,98609.16
2017-09-25T01:16:24.890Z,98606.59
2017-09-25T01:18:53.989Z,98611.54
2017-09-25T01:21:23.090Z,98605.14
2017-09-25T01:23:52.218Z,98605.92
2017-09-25T01:26:20.553Z,98604.17
2017-09-25T01:28:49.651Z,98604.56
2017-09-25T01:31:18.805Z,98601.46
2017-09-25T01:33:47.173Z,98605.35
2017-09-25T01:36:15.502Z,98602.70
2017-09-25T01:38:43.874Z,98605.20
2017-09-25T01:41:12.209Z,98605.92
2017-09-25T01:43:40.546Z,98596.06
2017-09-25T01:46:09.667Z,98598.60
2017-09-25T01:48:37.998Z,98600.38
2017-09-25T01:51:06.331Z,98597.81
2017-09-25T01:53:34.691Z,98598.26
2017-09-25T01:56:03.796Z,98594.36
2017-09-25T01:58:32.895Z,98592.84
2017-09-25T02:01:02.030Z,98595.93
2017-09-25T02:03:30.362Z,98597.28
2017-09-25T02:05:59.466Z,98595.16
2017-09-25T02:08:28.600Z,98595.70
2017-09-25T02:10:56.933Z,98589.70
2017-09-25T02:13:26.035Z,98588.72
2017-09-25T02:15:55.156Z,98585.23
2017-09-25T02:18:23.483Z,98578.63
2017-09-25T02:20:51.814Z,98577.34
2017-09-25T02:23:20.236Z,98580.09
2017-09-25T02:25:48.576Z,98580.45
2017-09-25T02:28:16.919Z,98573.75
2017-09-25T02:30:45.276Z,98580.61
2017-09-25T02:33:13.611Z,98578.59
2017-09-25T02:35:41.961Z,98581.73
2017-09-25T02:38:10.332Z,98578.73
2017-09-25T02:40:38.681Z,98580.09
2017-09-25T02:43:07.060Z,98573.59
2017-09-25T02:45:35.422Z,98572.59
2017-09-25T02:48:03.783Z,98563.44
2017-09-25T02:50:32.878Z,98564.17
2017-09-25T02:53:02.005Z,98563.49
2017-09-25T02:55:30.343Z,98565.33
2017-09-25T02:57:59.475Z,98556.78
2017-09-25T03:00:27.875Z,98558.77
2017-09-25T03:02:56.199Z,98558.88
2017-09-25T03:05:24.548Z,98554.00
2017-09-25T03:07:52.925Z,98552.76
2017-09-25T03:10:21.271Z,98553.70
2017-09-25T03:12:49.613Z,98549.28
2017-09-25T03:15:17.996Z,98552.28
2017-09-25T03:17:46.353Z,98551.75
2017-09-25T03:20:14.722Z,98547.34
2017-09-25T03:22:43.100Z,98550.77
2017-09-25T03:25:11.434Z,98547.68
2017-09-25T03:27:40.544Z,98548.54
2017-09-25T03:30:09.694Z,98545.16
2017-09-25T03:32:38.032Z,98537.27
2017-09-25T03:35:06.372Z,98534.97
2017-09-25T03:37:34.727Z,98533.72
2017-09-25T03:40:03.050Z,98524.15
2017-09-25T03:42:32.148Z,98529.73
2017-09-25T03:45:01.291Z,98533.11
2017-09-25T03:47:29.627Z,98529.17
2017-09-25T03:49:58.724Z,98528.45
2017-09-25T03:52:27.847Z,98530.37
2017-09-25T03:54:56.185Z,98533.71
2017-09-25T03:57:24.520Z,98528.73
2017-09-25T03:59:52.902Z,98534.58
2017-09-25T04:02:21.231Z,98532.75
2017-09-25T04:04:49.567Z,98538.63
2017-09-25T04:07:17.936Z,98536.93
2017-09-25T04:09:46.282Z,98546.74
2017-09-25T04:12:15.391Z,98542.42
2017-09-25T04:14:44.535Z,98542.36
2017-09-25T04:17:12.875Z,98540.23
2017-09-25T04:19:41.984Z,98538.94
2017-09-25T04:22:10.359Z,98536.36
2017-09-25T04:24:38.710Z,98532.61
2017-09-25T04:27:07.059Z,98539.59
2017-09-25T04:29:36.348Z,98536.53
2017-09-25T04:32:04.675Z,98535.20
2017-09-25T04:34:33.006Z,98536.05
2017-09-25T04:37:01.387Z,98536.92
2017-09-25T04:39:29.735Z,98540.05
2017-09-25T04:41:58.846Z,98541.73
2017-09-25T04:44:27.206Z,98546.45
2017-09-25T04:46:56.331Z,98545.17
2017-09-25T04:49:24.675Z,98548.53
2017-09-25T04:51:53.826Z,98549.84
2017-09-25T04:54:22.162Z,98549.34
2017-09-25T04:56:51.260Z,98552.70
2017-09-25T04:59:20.397Z,98551.28
2017-09-25T05:01:48.743Z,98552.54
2017-09-25T05:04:17.840Z,98549.02
2017-09-25T05:06:46.977Z,98552.80
2017-09-25T05:09:15.311Z,98549.34
2017-09-25T05:11:44.412Z,98552.80
2017-09-25T05:14:13.538Z,98553.63
2017-09-25T05:16:41.881Z,98557.95
2017-09-25T05:19:10.319Z,98561.39
2017-09-25T05:21:38.684Z,98559.20
2017-09-25T05:24:07.025Z,98561.29
2017-09-25T05:26:36.129Z,98557.90
2017-09-25T05:29:05.271Z,98560.13
2017-09-25T05:31:33.615Z,98560.18
2017-09-25T05:34:02.721Z,98565.02
2017-09-25T05:36:31.855Z,98561.44
2017-09-25T05:39:00.197Z,98557.97
2017-09-25T05:41:28.564Z,98561.03
2017-09-25T05:43:57.856Z,98564.88
2017-09-25T05:46:26.190Z,98561.06
2017-09-25T05:48:54.521Z,98568.37
2017-09-25T05:51:22.884Z,98563.72
2017-09-25T05:53:51.219Z,98568.00
2017-09-25T05:56:19.535Z,98563.88
2017-09-25T05:58:47.895Z,98566.50
2017-09-25T06:01:16.219Z,98567.70
2017-09-25T06:03:44.562Z,98571.48
2017-09-25T06:06:12.918Z,98575.92
2017-09-25T06:08:41.383Z,98575.16
2017-09-25T06:11:10.476Z,98578.56
2017-09-25T06:13:39.608Z,98580.53
2017-09-25T06:16:07.976Z,98577.86
2017-09-25T06:18:36.302Z,98579.96
2017-09-25T06:21:04.680Z,98570.77
2017-09-25T06:23:33.026Z,98565.57
2017-09-25T06:26:01.400Z,98569.59
2017-09-25T06:28:29.829Z,98561.55
2017-09-25T06:30:58.291Z,98555.17
2017-09-25T06:33:27.486Z,98556.38
2017-09-25T06:35:56.076Z,98555.35
2017-09-25T06:38:24.419Z,98556.11
2017-09-25T06:40:52.750Z,98558.75
2017-09-25T06:43:21.104Z,98554.84
2017-09-25T06:45:49.438Z,98558.72
2017-09-25T06:48:18.535Z,98557.68
2017-09-25T06:50:47.657Z,98564.36
2017-09-25T06:53:15.979Z,98564.36
2017-09-25T06:55:44.488Z,98561.53
2017-09-25T06:58:12.847Z,98558.73
2017-09-25T07:00:41.183Z,98554.61
2017-09-25T07:03:09.514Z,98555.28
2017-09-25T07:05:37.872Z,98560.63
2017-09-25T07:08:06.200Z,98560.45
2017-09-25T07:10:35.297Z,98560.94
2017-09-25T07:13:04.431Z,98557.84
2017-09-25T07:15:32.766Z,98561.14
2017-09-25T07:18:01.101Z,98559.30
2017-09-25T07:20:29.456Z,98566.33
2017-09-25T07:22:57.800Z,98566.53
2017-09-25T07:25:26.131Z,98556.79
2017-09-25T07:27:54.491Z,98561.49
2017-09-25T07:30:23.588Z,98558.76
2017-09-25T07:32:52.679Z,98556.56
2017-09-25T07:35:21.056Z,98557.17
2017-09-25T07:37:50.176Z,98557.81
2017-09-25T07:40:18.520Z,98560.98
2017-09-25T07:42:46.871Z,98561.39
2017-09-25T07:45:15.207Z,98559.00
2017-09-25T07:47:43.544Z,98558.83
2017-09-25T07:50:11.965Z,98563.97
2017-09-25T07:52:41.065Z,98560.70
2017-09-25T07:55:09.407Z,98560.75
2017-09-25T07:57:37.768Z,98566.98
2017-09-25T08:00:06.136Z,98561.17
2017-09-25T08:02:34.470Z,98565.58
2017-09-25T08:05:03.612Z,98572.14
2017-09-25T08:07:31.943Z,98565.37
2017-09-25T08:10:01.047Z,98556.41
2017-09-25T08:12:30.188Z,98565.95
2017-09-25T08:14:58.527Z,98559.27
2017-09-25T08:17:27.622Z,98565.59
2017-09-25T08:19:56.740Z,98565.20
2017-09-25T08:22:25.076Z,98560.96
2017-09-25T08:24:53.420Z,98561.42
2017-09-25T08:27:21.775Z,98559.98
2017-09-25T08:29:50.171Z,98559.24
2017-09-25T08:32:18.500Z,98555.42
2017-09-25T08:34:46.887Z,98556.27
2017-09-25T08:37:15.219Z,98548.74
2017-09-25T08:39:43.551Z,98553.17
2017-09-25T08:42:11.906Z,98553.80
2017-09-25T08:44:40.269Z,98550.78
2017-09-25T08:47:08.618Z,98549.95
2017-09-25T08:49:37.756Z,98549.19
2017-09-25T08:52:06.089Z,98548.50
2017-09-25T08:54:35.217Z,98550.59
2017-09-25T08:57:03.590Z,98551.10
2017-09-25T08:59:31.961Z,98542.95
2017-09-25T09:02:00.301Z,98546.03
2017-09-25T09:04:28.663Z,98542.84
2017-09-25T09:06:57.003Z,98544.02
2017-09-25T09:09:25.337Z,98535.15
2017-09-25T09:11:54.556Z,98540.08
2017-09-25T09:14:22.883Z,98538.67
2017-09-25T09:16:51.240Z,98531.23
2017-09-25T09:19:19.576Z,98532.14
2017-09-25T09:21:47.899Z,98530.52
2017-09-25T09:24:17.023Z,98524.09
2017-09-25T09:26:45.355Z,98530.69
2017-09-25T09:29:13.705Z,98527.19
2017-09-25T09:31:42.651Z,98525.50
2017-09-25T09:34:10.987Z,98525.98
2017-09-25T09:36:39.331Z,98519.69
2017-09-25T09:39:07.691Z,98518.42
2017-09-25T09:41:36.051Z,98515.80
2017-09-25T09:44:05.166Z,98514.34
2017-09-25T09:46:34.283Z,98511.86
2017-09-25T09:49:02.638Z,98511.65
2017-09-25T09:51:31.780Z,98508.81
2017-09-25T09:54:00.136Z,98513.06
2017-09-25T09:56:28.480Z,98514.72
2017-09-25T09:58:56.865Z,98511.54
2017-09-25T10:01:25.247Z,98507.98
2017-09-25T10:03:55.584Z,98512.55
2017-09-25T10:06:24.714Z,98511.94
2017-09-25T10:08:53.067Z,98510.59
2017-09-25T10:11:22.177Z,98509.31
2017-09-25T10:13:50.548Z,98506.97
2017-09-25T10:16:19.651Z,98503.06
2017-09-25T10:18:48.757Z,98504.92
2017-09-25T10:21:17.113Z,98505.15
2017-09-25T10:23:46.236Z,98505.09
2017-09-25T10:26:14.576Z,98501.33
2017-09-25T10:28:42.933Z,98506.95
2017-09-25T10:31:11.272Z,98505.48
2017-09-25T10:33:39.605Z,98508.52
2017-09-25T10:36:07.963Z,98505.78
2017-09-25T10:38:36.297Z,98500.58
2017-09-25T10:41:05.425Z,98505.28
2017-09-25T10:43:33.769Z,98504.62
2017-09-25T10:46:02.134Z,98504.86
2017-09-25T10:48:30.519Z,98506.28
2017-09-25T10:50:58.855Z,98498.38
2017-09-25T10:53:27.189Z,98499.84
2017-09-25T10:55:57.562Z,98508.36
2017-09-25T10:58:25.924Z,98515.50
2017-09-25T11:00:54.285Z,98508.16
2017-09-25T11:03:23.391Z,98506.30
2017-09-25T11:05:51.766Z,98506.49
2017-09-25T11:08:20.914Z,98505.28
2017-09-25T11:10:49.256Z,98501.41
2017-09-25T11:13:18.363Z,98503.69
2017-09-25T11:15:46.737Z,98504.27
2017-09-25T11:18:15.072Z,98497.47
2017-09-25T11:20:43.408Z,98497.70
2017-09-25T11:23:11.802Z,98493.73
2017-09-25T11:25:40.152Z,98493.61
2017-09-25T11:28:09.267Z,98494.57
2017-09-25T11:30:37.631Z,98492.50
2017-09-25T11:33:06.738Z,98493.64
2017-09-25T11:35:35.073Z,98486.27
2017-09-25T11:38:03.459Z,98481.84
2017-09-25T11:40:31.819Z,98476.56
2017-09-25T11:43:00.148Z,98481.52
2017-09-25T11:45:29.284Z,98483.78
2017-09-25T11:47:57.871Z,98486.24
2017-09-25T11:50:26.208Z,98488.02
2017-09-25T11:52:55.343Z,98484.78
2017-09-25T11:55:23.691Z,98481.45
2017-09-25T11:57:52.815Z,98478.34
2017-09-25T12:00:21.172Z,98481.89
2017-09-25T12:02:50.288Z,98482.74
2017-09-25T12:05:18.638Z,98487.39
2017-09-25T12:07:47.020Z,98485.96
2017-09-25T12:10:16.142Z,98484.19
2017-09-25T12:12:44.480Z,98480.16
2017-09-25T12:15:12.861Z,98490.47
2017-09-25T12:17:41.193Z,98488.94
2017-09-25T12:20:09.524Z,98483.42
2017-09-25T12:22:37.888Z,98487.95
2017-09-25T12:25:06.224Z,98483.50
2017-09-25T12:27:34.568Z,98498.03
2017-09-25T12:30:02.938Z,98491.35
2017-09-25T12:32:31.276Z,98490.37
2017-09-25T12:34:59.609Z,98487.64
2017-09-25T12:37:27.971Z,98484.73
2017-09-25T12:39:56.301Z,98489.46
2017-09-25T12:42:24.638Z,98487.31
2017-09-25T12:44:53.001Z,98489.84
2017-09-25T12:47:21.328Z,98489.50
2017-09-25T12:49:50.429Z,98487.64
2017-09-25T12:52:19.594Z,98490.50
2017-09-25T12:54:47.959Z,98487.27
2017-09-25T12:57:16.291Z,98484.31
2017-09-25T13:02:27.393Z,98484.67
2017-09-25T13:04:55.800Z,98489.03
2017-09-25T13:07:24.131Z,98489.05
2017-09-25T13:09:53.482Z,98488.66
2017-09-25T13:12:21.852Z,98485.02
2017-09-25T13:14:50.188Z,98484.98
2017-09-25T13:17:18.518Z,98483.58
2017-09-25T13:19:46.879Z,98479.47
2017-09-25T13:22:15.212Z,98477.94
2017-09-25T13:24:43.555Z,98476.64
2017-09-25T13:27:11.927Z,98483.52
2017-09-25T13:29:40.343Z,98480.71
2017-09-25T13:32:08.701Z,98472.99
2017-09-25T13:34:37.037Z,98474.09
2017-09-25T13:37:05.369Z,98472.44
2017-09-25T13:39:33.723Z,98470.89
2017-09-25T13:42:02.066Z,98467.91
2017-09-25T13:44:30.401Z,98476.09
2017-09-25T13:46:58.761Z,98474.55
2017-09-25T13:49:27.135Z,98475.09
2017-09-25T13:51:57.025Z,98471.47
2017-09-25T13:54:25.364Z,98471.60
2017-09-25T13:56:53.691Z,98465.45
2017-09-25T14:04:29.156Z,98467.38
2017-09-25T14:06:57.514Z,98463.82
2017-09-25T14:09:25.860Z,98461.80
2017-09-25T14:11:54.268Z,98462.36
2017-09-25T14:14:22.610Z,98457.56
2017-09-25T14:16:51.727Z,98458.99
2017-09-25T14:19:20.083Z,98458.19
2017-09-25T14:21:49.184Z,98455.38
2017-09-25T14:24:18.284Z,98454.73
2017-09-25T14:26:47.427Z,98459.33
2017-09-25T14:29:15.795Z,98463.57
2017-09-25T14:31:44.128Z,98461.59
2017-09-25T14:34:12.484Z,98456.41
2017-09-25T14:36:40.820Z,98455.63
2017-09-25T14:39:09.152Z,98466.05
2017-09-25T14:41:37.508Z,98453.06
2017-09-25T14:44:05.882Z,98459.33
2017-09-25T14:46:34.243Z,98459.63
2017-09-25T14:49:02.613Z,98452.59
2017-09-25T14:51:31.755Z,98463.74
2017-09-25T14:54:00.099Z,98455.58
2017-09-25T14:56:28.476Z,98457.06
2017-09-25T14:58:56.822Z,98459.38
2017-09-25T15:01:25.151Z,98459.08
2017-09-25T15:03:53.508Z,98458.99
2017-09-25T15:06:22.607Z,98452.72
2017-09-25T15:08:51.735Z,98456.18
2017-09-25T15:11:20.077Z,98454.28
2017-09-25T15:13:49.186Z,98457.77
2017-09-25T15:16:18.332Z,98452.34
2017-09-25T15:18:46.726Z,98450.61
2017-09-25T15:21:15.260Z,98452.59
2017-09-25T15:23:43.626Z,98452.79
2017-09-25T15:26:12.736Z,98452.38
2017-09-25T15:28:41.843Z,98454.48
2017-09-25T15:31:10.223Z,98449.81
2017-09-25T15:33:38.555Z,98454.88
2017-09-25T15:36:06.890Z,98458.48
2017-09-25T15:38:35.262Z,98458.77
2017-09-25T15:41:03.612Z,98464.30
2017-09-25T15:43:32.775Z,98460.09
2017-09-25T15:46:01.164Z,98458.14
2017-09-25T15:48:29.508Z,98455.31
2017-09-25T15:50:57.849Z,98459.56
2017-09-25T15:53:26.287Z,98455.81
2017-09-25T15:55:54.643Z,98457.61
2017-09-25T15:58:22.971Z,98458.05
2017-09-25T16:00:51.329Z,98459.81
2017-09-25T16:03:19.667Z,98462.36
2017-09-25T16:05:48.772Z,98456.50
2017-09-25T16:08:17.900Z,98456.41
2017-09-25T16:10:46.239Z,98458.27
2017-09-25T16:13:15.347Z,98461.05
2017-09-25T16:15:46.256Z,98462.95
2017-09-25T16:18:14.680Z,98458.80
2017-09-25T16:20:43.011Z,98458.83
2017-09-25T16:23:11.381Z,98458.55
2017-09-25T16:25:39.715Z,98460.13
2017-09-25T16:28:08.112Z,98459.25
2017-09-25T16:30:36.450Z,98454.19
2017-09-25T16:33:04.827Z,98461.78
2017-09-25T16:35:33.174Z,98458.95
2017-09-25T16:38:01.545Z,98456.13
2017-09-25T16:40:29.941Z,98462.28
2017-09-25T16:42:58.311Z,98462.37
2017-09-25T16:45:26.682Z,98464.51
2017-09-25T16:47:55.039Z,98463.52
2017-09-25T16:50:24.165Z,98470.72
2017-09-25T16:52:52.504Z,98471.98
2017-09-25T16:55:21.650Z,98472.12
2017-09-25T16:57:49.980Z,98471.94
2017-09-25T17:00:19.107Z,98468.42
2017-09-25T17:02:47.473Z,98471.78
2017-09-25T17:05:16.568Z,98471.36
2017-09-25T17:07:44.911Z,98465.73
2017-09-25T17:10:13.272Z,98467.38
2017-09-25T17:12:41.654Z,98467.27
2017-09-25T17:15:09.975Z,98467.53
2017-09-25T17:17:39.137Z,98470.90
2017-09-25T17:20:07.473Z,98473.02
2017-09-25T17:22:36.598Z,98479.05
2017-09-25T17:25:04.975Z,98481.12
2017-09-25T17:27:33.345Z,98476.70
2017-09-25T17:30:02.442Z,98479.94
2017-09-25T17:32:30.802Z,98484.55
2017-09-25T17:34:59.910Z,98484.36
2017-09-25T17:37:28.265Z,98487.61
2017-09-25T17:39:56.629Z,98490.94
2017-09-25T17:42:24.967Z,98487.45
2017-09-25T17:44:53.330Z,98490.51
2017-09-25T17:47:22.449Z,98491.17
2017-09-25T17:49:50.801Z,98498.42
2017-09-25T17:52:19.913Z,98498.84
2017-09-25T17:54:48.316Z,98495.81
2017-09-25T17:57:16.676Z,98501.06
2017-09-25T17:59:45.016Z,98503.52
2017-09-25T18:02:13.387Z,98514.86
2017-09-25T18:04:41.722Z,98518.05
2017-09-25T18:07:10.102Z,98525.48
2017-09-25T18:09:38.436Z,98525.92
2017-09-25T18:12:06.776Z,98526.09
2017-09-25T18:14:35.148Z,98530.05
2017-09-25T18:17:03.500Z,98531.79
2017-09-25T18:19:31.832Z,98526.78
2017-09-25T18:22:00.992Z,98535.41
2017-09-25T18:24:30.105Z,98535.95
2017-09-25T18:26:58.438Z,98537.64
2017-09-25T18:29:26.812Z,98541.22
2017-09-25T18:31:55.157Z,98540.11
2017-09-25T18:34:23.494Z,98541.55
2017-09-25T18:36:52.634Z,98544.81
2017-09-25T18:39:20.975Z,98549.05
2017-09-25T18:41:50.088Z,98543.08
2017-09-25T18:44:18.473Z,98548.25
2017-09-25T18:46:46.808Z,98546.63
2017-09-25T18:49:15.212Z,98552.10
2017-09-25T18:51:44.327Z,98546.54
2017-09-25T18:54:13.595Z,98557.31
2017-09-25T18:56:41.965Z,98553.87
2017-09-25T18:59:10.313Z,98547.77
2017-09-25T19:01:38.644Z,98550.28
2017-09-25T19:04:07.020Z,98541.30
2017-09-25T19:06:36.161Z,98539.30
2017-09-25T19:09:04.560Z,98546.20
2017-09-25T19:11:32.911Z,98551.80
2017-09-25T19:14:02.007Z,98552.23
2017-09-25T19:16:31.157Z,98548.00
2017-09-25T19:18:59.512Z,98558.72
2017-09-25T19:21:27.882Z,98563.09
2017-09-25T19:23:57.293Z,98561.04
2017-09-25T19:26:26.463Z,98565.45
2017-09-25T19:28:55.598Z,98562.00
2017-09-25T19:31:23.940Z,98564.05
2017-09-25T19:33:53.058Z,98560.75
2017-09-25T19:36:21.429Z,98557.61
2017-09-25T19:38:50.544Z,98564.12
2017-09-25T19:41:19.204Z,98558.42
2017-09-25T19:43:48.545Z,98553.56
2017-09-25T19:46:16.911Z,98554.38
2017-09-25T19:48:55.215Z,98551.82
2017-09-25T19:51:24.760Z,98549.24
2017-09-25T19:53:54.478Z,98554.38
2017-09-25T19:56:22.815Z,98554.42
2017-09-25T19:58:51.367Z,98556.61
2017-09-25T20:01:20.020Z,98555.89
2017-09-25T20:03:48.362Z,98551.22
2017-09-25T20:06:18.723Z,98549.89
2017-09-25T20:08:47.251Z,98551.59
2017-09-25T20:11:16.402Z,98555.86
2017-09-25T20:13:45.024Z,98558.38
2017-09-25T20:16:25.305Z,98563.59
2017-09-25T20:18:54.411Z,98557.58
2017-09-25T20:21:23.613Z,98564.66
2017-09-25T20:23:52.753Z,98556.05
2017-09-25T20:26:21.195Z,98559.80
2017-09-25T20:28:50.323Z,98560.19
2017-09-25T20:31:18.748Z,98563.14
2017-09-25T20:33:47.104Z,98561.79
2017-09-25T20:36:15.447Z,98566.55
2017-09-25T20:38:43.931Z,98569.08
2017-09-25T20:41:13.242Z,98565.59
2017-09-25T20:43:41.595Z,98567.75
2017-09-25T20:46:10.739Z,98560.51
2017-09-25T20:48:39.087Z,98563.52
2017-09-25T20:51:08.203Z,98563.97
2017-09-25T20:53:36.572Z,98563.19
2017-09-25T20:56:04.920Z,98561.48
2017-09-25T20:58:33.288Z,98556.00
2017-09-25T21:01:01.670Z,98556.43
2017-09-25T21:03:30.018Z,98556.45
2017-09-25T21:05:58.417Z,98548.25
2017-09-25T21:08:26.832Z,98552.53
2017-09-25T21:10:55.207Z,98559.02
2017-09-25T21:13:23.612Z,98553.40
2017-09-25T21:15:52.000Z,98560.28
2017-09-25T21:18:20.655Z,98553.91
2017-09-25T21:20:49.036Z,98551.41
2017-09-25T21:23:17.374Z,98556.18
2017-09-25T21:25:46.600Z,98559.62
2017-09-25T21:28:15.015Z,98564.75
2017-09-25T21:30:44.121Z,98564.81
2017-09-25T21:33:12.501Z,98562.70
2017-09-25T21:35:41.621Z,98559.73
2017-09-25T21:38:09.993Z,98559.75
2017-09-25T21:40:38.356Z,98560.26
2017-09-25T21:43:07.452Z,98560.31
2017-09-25T21:45:36.549Z,98560.80
2017-09-25T21:48:05.706Z,98554.88
2017-09-25T21:50:34.069Z,98557.41
2017-09-25T21:53:02.447Z,98559.14
2017-09-25T21:55:30.787Z,98558.67
2017-09-25T21:57:59.924Z,98561.59
2017-09-25T22:00:28.405Z,98565.42
2017-09-25T22:02:56.803Z,98563.68
2017-09-25T22:05:25.243Z,98561.49
2017-09-25T22:07:53.633Z,98554.95
2017-09-25T22:10:22.622Z,98559.20
2017-09-25T22:12:51.788Z,98557.43
2017-09-25T22:15:20.136Z,98557.81
2017-09-25T22:17:48.552Z,98560.74
2017-09-25T22:20:16.937Z,98561.19
2017-09-25T22:22:45.280Z,98558.14
2017-09-25T22:25:13.619Z,98557.25
2017-09-25T22:27:42.748Z,98555.09
2017-09-25T22:30:11.134Z,98553.31
2017-09-25T22:32:39.616Z,98555.82
2017-09-25T22:35:08.120Z,98547.16
2017-09-25T22:37:37.263Z,98551.81
2017-09-25T22:40:06.501Z,98544.08
2017-09-25T22:42:38.478Z,98547.09
2017-09-25T22:45:06.957Z,98546.19
2017-09-25T22:47:35.343Z,98547.92
2017-09-25T22:50:03.815Z,98549.80
2017-09-25T22:52:32.224Z,98555.83
2017-09-25T22:55:00.612Z,98557.67
2017-09-25T22:57:29.007Z,98554.38
2017-09-25T22:59:58.132Z,98553.55
2017-09-25T23:02:26.544Z,98553.14
2017-09-25T23:05:09.789Z,98553.59
2017-09-25T23:07:38.196Z,98549.73
2017-09-25T23:10:08.351Z,98551.41
2017-09-25T23:12:36.783Z,98553.53
2017-09-25T23:15:05.153Z,98555.59
2017-09-25T23:17:33.617Z,98559.48
2017-09-25T23:20:01.980Z,98555.70
2017-09-25T23:22:30.358Z,98560.95
2017-09-25T23:24:58.704Z,98557.55
2017-09-25T23:27:27.083Z,98558.50
2017-09-25T23:29:59.855Z,98558.89
2017-09-25T23:32:29.445Z,98558.47
2017-09-25T23:34:57.811Z,98555.48
2017-09-25T23:37:26.139Z,98557.14
2017-09-25T23:39:54.503Z,98553.19
2017-09-25T23:44:57.493Z,98553.02
2017-09-25T23:47:25.847Z,98555.00
2017-09-25T23:49:54.206Z,98549.69
2017-09-25T23:52:23.321Z,98551.73
2017-09-25T23:54:51.687Z,98553.95
2017-09-25T23:57:20.811Z,98555.91
2017-09-25T23:59:49.143Z,98555.85
